Time;durP1;ratioP1;P1;durP2;ratioP2;P2;SDS_P1;SDS_P2;PMS_P1;PMS_P2;Temp;Humidity;BMP_temperature;BMP_pressure;BME280_temperature;BME280_humidity;BME280_pressure;Samples;Min_cycle;Max_cycle;Signal;HPM_P1;HPM_P2
2022/12/14 00:01:24;;;;;;;53.53;29.67;;;;;;;;;;5071814;28;20401;-52
2022/12/14 00:03:50;;;;;;;45.53;26.83;;;;;;;;;;5089340;28;20206;-54
2022/12/14 00:06:17;;;;;;;47.03;25.85;;;;;;;;;;5089293;28;20101;-51
2022/12/14 00:08:44;;;;;;;50.72;26.92;;;;;;;;;;5059188;28;20041;-54
2022/12/14 00:11:10;;;;;;;50.10;27.92;;;;;;;;;;5090232;28;20028;-51
2022/12/14 00:13:37;;;;;;;49.13;29.00;;;;;;;;;;5070513;28;20046;-51
2022/12/14 00:16:07;;;;;;;47.20;28.25;;;;;;;;;;5093057;28;20039;-51
2022/12/14 00:18:33;;;;;;;50.05;27.42;;;;;;;;;;5085717;28;20043;-51
2022/12/14 00:21:06;;;;;;;47.70;28.50;;;;;;;;;;5099529;28;20058;-48
2022/12/14 00:23:32;;;;;;;46.17;27.23;;;-4.80;99.90;;;;;;5089677;28;20050;-51
2022/12/14 00:25:58;;;;;;;46.53;27.60;;;-4.80;99.90;;;;;;5086022;28;20044;-52
2022/12/14 00:28:24;;;;;;;54.63;28.80;;;;;;;;;;5092873;28;20112;-51
2022/12/14 00:30:56;;;;;;;51.08;28.00;;;;;;;;;;5104276;28;20032;-51
2022/12/14 00:33:22;;;;;;;47.75;27.55;;;;;;;;;;5071179;28;20032;-52
2022/12/14 00:35:47;;;;;;;49.28;26.42;;;-4.90;99.90;;;;;;5092714;28;20489;-52
2022/12/14 00:38:13;;;;;;;48.40;26.88;;;;;;;;;;5080998;28;20040;-51
2022/12/14 00:40:39;;;;;;;48.38;26.70;;;-5.00;99.90;;;;;;5087173;28;20036;-50
2022/12/14 00:43:05;;;;;;;50.40;29.38;;;;;;;;;;5090548;28;20032;-49
2022/12/14 00:45:31;;;;;;;46.92;25.00;;;;;;;;;;5092762;28;20405;-50
2022/12/14 00:47:57;;;;;;;52.15;29.02;;;;;;;;;;5073365;28;20036;-50
2022/12/14 00:50:23;;;;;;;53.63;27.73;;;;;;;;;;5097159;28;20039;-52
2022/12/14 00:52:48;;;;;;;49.75;27.08;;;-5.20;99.90;;;;;;5092861;28;20032;-53
2022/12/14 00:55:14;;;;;;;50.42;28.73;;;-5.40;99.90;;;;;;5092568;28;20039;-52
2022/12/14 00:57:40;;;;;;;52.28;28.75;;;;;;;;;;5093243;28;20043;-50
2022/12/14 01:00:07;;;;;;;53.80;28.33;;;;;;;;;;5092788;28;20040;-52
2022/12/14 01:02:33;;;;;;;53.22;27.65;;;;;;;;;;5090406;28;20036;-51
2022/12/14 01:04:59;;;;;;;50.30;27.67;;;;;;;;;;5092417;28;20036;-52
2022/12/14 01:07:25;;;;;;;49.70;27.17;;;;;;;;;;5091691;28;20445;-50
2022/12/14 01:09:51;;;;;;;52.33;28.23;;;;;;;;;;5095601;28;20131;-51
2022/12/14 01:12:17;;;;;;;49.42;26.35;;;;;;;;;;5071668;28;20043;-50
2022/12/14 01:14:45;;;;;;;49.08;27.15;;;;;;;;;;5092202;28;20032;-52
2022/12/14 01:17:11;;;;;;;52.25;28.75;;;;;;;;;;5081733;28;20467;-50
2022/12/14 01:19:36;;;;;;;53.42;28.23;;;-5.40;99.90;;;;;;5077011;28;20043;-51
2022/12/14 01:22:02;;;;;;;50.63;28.20;;;-5.70;99.90;;;;;;5078964;28;20039;-52
2022/12/14 01:24:28;;;;;;;48.63;25.80;;;;;;;;;;5091850;28;20064;-53
2022/12/14 01:26:54;;;;;;;52.17;26.40;;;-5.70;99.90;;;;;;5091278;28;20485;-51
2022/12/14 01:29:20;;;;;;;51.35;26.70;;;;;;;;;;5092047;28;20039;-50
2022/12/14 01:31:46;;;;;;;47.55;26.50;;;;;;;;;;5094505;28;20066;-51
2022/12/14 01:34:13;;;;;;;45.03;25.27;;;;;;;;;;5097378;28;20613;-52
2022/12/14 01:36:40;;;;;;;46.72;24.70;;;;;;;;;;5091481;28;20074;-51
2022/12/14 01:39:12;;;;;;;42.17;25.15;;;;;;;;;;5096591;28;20122;-54
2022/12/14 01:41:43;;;;;;;45.28;25.45;;;;;;;;;;5096373;28;20058;-55
2022/12/14 01:44:10;;;;;;;45.53;24.67;;;;;;;;;;5088291;28;20513;-53
2022/12/14 01:46:55;;;;;;;43.05;24.98;;;;;;;;;;5091464;28;20052;-52
2022/12/14 01:49:24;;;;;;;44.45;25.55;;;;;;;;;;5098970;28;20097;-51
2022/12/14 01:52:11;;;;;;;43.35;24.90;;;;;;;;;;5096290;28;20068;-51
2022/12/14 01:54:41;;;;;;;45.05;24.42;;;;;;;;;;5091423;28;20043;-54
2022/12/14 01:57:08;;;;;;;51.08;25.95;;;-6.10;99.90;;;;;;5090853;28;20047;-52
2022/12/14 01:59:38;;;;;;;51.17;26.10;;;-6.50;99.90;;;;;;5091304;28;20044;-53
2022/12/14 02:02:05;;;;;;;46.28;23.80;;;;;;;;;;5103439;28;20080;-54
2022/12/14 02:04:36;;;;;;;52.83;26.45;;;-5.90;99.90;;;;;;5095760;28;20044;-54
2022/12/14 02:07:02;;;;;;;52.50;25.75;;;;;;;;;;5088183;28;20040;-52
2022/12/14 02:09:31;;;;;;;49.17;26.25;;;;;;;;;;5090874;28;20452;-53
2022/12/14 02:12:07;;;;;;;52.33;26.48;;;-6.00;99.90;;;;;;5091214;28;20034;-49
2022/12/14 02:14:33;;;;;;;47.75;26.35;;;;;;;;;;5088342;28;20036;-54
2022/12/14 02:17:00;;;;;;;52.80;26.23;;;;;;;;;;5080938;28;20059;-54
2022/12/14 02:19:26;;;;;;;51.17;25.75;;;-5.40;99.90;;;;;;5089202;28;20036;-52
2022/12/14 02:21:58;;;;;;;57.97;27.67;;;;;;;;;;5067478;28;20049;-51
2022/12/14 02:24:50;;;;;;;50.63;25.42;;;;;;;;;;5090854;28;20036;-51
2022/12/14 02:27:35;;;;;;;46.50;25.42;;;;;;;;;;5081110;28;20477;-49
2022/12/14 02:30:12;;;;;;;51.25;25.95;;;;;;;;;;5090790;28;20039;-50
2022/12/14 02:32:38;;;;;;;46.50;26.40;;;;;;;;;;5090688;28;20032;-51
2022/12/14 02:35:37;;;;;;;47.08;24.08;;;;;;;;;;5089721;28;20397;-53
2022/12/14 02:38:12;;;;;;;44.30;24.15;;;;;;;;;;5087569;28;20123;-52
2022/12/14 02:41:01;;;;;;;46.58;24.63;;;;;;;;;;5086360;28;20384;-53
2022/12/14 02:43:41;;;;;;;46.63;25.20;;;;;;;;;;5072193;28;20113;-54
2022/12/14 02:46:22;;;;;;;52.88;26.75;;;-5.50;99.90;;;;;;5061467;28;20036;-53
2022/12/14 02:48:52;;;;;;;45.95;26.60;;;;;;;;;;5058956;28;20081;-54
2022/12/14 02:51:40;;;;;;;49.75;28.02;;;-6.00;99.90;;;;;;5084263;28;20093;-55
2022/12/14 02:54:13;;;;;;;46.03;25.67;;;;;;;;;;5089016;28;20036;-52
2022/12/14 02:56:46;;;;;;;51.10;27.67;;;-6.00;99.90;;;;;;5090118;28;20043;-54
2022/12/14 02:59:13;;;;;;;56.13;28.85;;;;;;;;;;5084611;28;20036;-54
2022/12/14 03:01:40;;;;;;;50.92;27.92;;;;;;;;;;5080573;28;20048;-52
2022/12/14 03:04:06;;;;;;;55.40;28.92;;;-5.70;99.90;;;;;;5090084;28;20035;-52
2022/12/14 03:06:32;;;;;;;54.08;27.67;;;-6.00;99.90;;;;;;5091676;28;20036;-53
2022/12/14 03:09:00;;;;;;;53.80;27.67;;;;;;;;;;5088722;28;20110;-53
2022/12/14 03:11:35;;;;;;;46.28;25.48;;;-6.00;99.90;;;;;;5098838;28;20051;-53
2022/12/14 03:14:01;;;;;;;;;;;;;;;;;;5065492;28;20047;-54
2022/12/14 03:16:33;;;;;;;48.03;26.60;;;;;;;;;;5082750;28;19916;-55
2022/12/14 03:19:06;;;;;;;51.47;27.70;;;;;;;;;;5060795;28;20040;-53
2022/12/14 03:21:45;;;;;;;51.10;28.63;;;;;;;;;;5070097;28;20044;-51
2022/12/14 03:24:15;;;;;;;48.55;27.27;;;-5.90;99.90;;;;;;5089867;28;20566;-52
2022/12/14 03:27:05;;;;;;;51.42;26.95;;;-6.10;99.90;;;;;;5068839;28;20042;-51
2022/12/14 03:29:38;;;;;;;52.25;25.30;;;;;;;;;;5089664;28;20093;-53
2022/12/14 03:32:12;;;;;;;50.13;27.67;;;-6.50;99.90;;;;;;5090089;28;20067;-54
2022/12/14 03:34:44;;;;;;;49.08;25.77;;;-6.00;99.90;;;;;;5089721;28;20040;-52
2022/12/14 03:37:15;;;;;;;50.15;28.30;;;;;;;;;;5084662;28;20036;-54
2022/12/14 03:39:43;;;;;;;49.92;27.30;;;;;;;;;;5089755;28;20405;-52
2022/12/14 03:42:29;;;;;;;56.65;27.50;;;;;;;;;;5083460;28;20032;-52
2022/12/14 03:45:13;;;;;;;50.03;26.88;;;;;;;;;;5089366;28;20048;-55
2022/12/14 03:47:58;;;;;;;48.88;25.95;;;;;;;;;;5093126;28;20036;-53
2022/12/14 03:50:28;;;;;;;47.10;24.65;;;;;;;;;;5082970;28;20253;-52
2022/12/14 03:53:09;;;;;;;46.20;27.15;;;;;;;;;;5082453;28;20564;-53
2022/12/14 03:55:53;;;;;;;51.58;25.40;;;;;;;;;;5091208;28;20039;-49
2022/12/14 03:58:30;;;;;;;56.05;28.02;;;;;;;;;;5093039;28;20049;-51
2022/12/14 04:01:11;;;;;;;48.95;26.58;;;-6.50;99.90;;;;;;5093278;28;20413;-51
2022/12/14 04:03:45;;;;;;;50.17;26.67;;;;;;;;;;5093335;28;20036;-51
2022/12/14 04:06:18;;;;;;;47.95;24.85;;;;;;;;;;5082945;28;20041;-52
2022/12/14 04:08:47;;;;;;;48.47;25.05;;;;;;;;;;5096394;28;20032;-52
2022/12/14 04:19:50;;;;;;;53.58;27.90;;;;;;;;;;5091915;28;20076;-52
2022/12/14 04:22:23;;;;;;;54.20;27.52;;;;;;;;;;5078490;28;20532;-53
2022/12/14 04:27:50;;;;;;;46.17;26.45;;;-6.70;99.90;;;;;;5086974;28;20044;-53
2022/12/14 04:30:16;;;;;;;53.83;27.77;;;-6.70;99.90;;;;;;5092797;28;20082;-53
2022/12/14 04:33:45;;;;;;;53.08;26.83;;;;;;;;;;5102022;28;20565;-54
2022/12/14 04:35:51;;;;;;;44.90;24.45;;;;;;;;;;5092359;28;20088;-52
2022/12/14 04:38:22;;;;;;;50.88;27.52;;;;;;;;;;5092145;28;20044;-53
2022/12/14 04:40:56;;;;;;;54.95;27.63;;;-6.60;99.90;;;;;;5092679;28;20036;-53
2022/12/14 04:43:22;;;;;;;;;;;;;;;;;;5077703;28;20395;-50
2022/12/14 04:45:58;;;;;;;46.25;24.42;;;;;;;;;;5092633;28;19934;-48
2022/12/14 04:48:54;;;;;;;47.95;25.23;;;-6.50;99.90;;;;;;5091311;28;20043;-50
2022/12/14 04:51:34;;;;;;;44.03;24.75;;;-6.80;99.90;;;;;;5081207;28;20037;-53
2022/12/14 04:54:06;;;;;;;47.97;24.13;;;;;;;;;;5073429;28;20730;-52
2022/12/14 04:56:55;;;;;;;42.70;23.08;;;;;;;;;;5084586;28;20521;-53
2022/12/14 04:59:21;;;;;;;44.45;23.73;;;;;;;;;;5073909;28;20052;-53
2022/12/14 05:01:59;;;;;;;45.85;24.27;;;;;;;;;;5090156;28;20044;-54
2022/12/14 05:04:33;;;;;;;41.70;22.38;;;;;;;;;;5070749;28;20048;-50
2022/12/14 05:07:26;;;;;;;43.25;23.00;;;-7.00;99.90;;;;;;5085085;28;20040;-50
2022/12/14 05:09:58;;;;;;;44.63;23.23;;;;;;;;;;5073996;28;20121;-50
2022/12/14 05:12:28;;;;;;;47.60;22.50;;;;;;;;;;5094556;28;20135;-53
2022/12/14 05:15:08;;;;;;;42.05;23.70;;;;;;;;;;5083830;28;20040;-53
2022/12/14 05:17:36;;;;;;;47.22;23.10;;;;;;;;;;5091257;28;20169;-53
2022/12/14 05:20:01;;;;;;;43.85;23.10;;;-6.90;99.90;;;;;;5091293;28;20560;-51
2022/12/14 05:22:27;;;;;;;49.15;26.25;;;;;;;;;;5091603;28;20119;-52
2022/12/14 05:24:53;;;;;;;59.85;30.60;;;;;;;;;;5092097;28;20039;-49
2022/12/14 05:27:19;;;;;;;52.20;27.52;;;;;;;;;;5075088;28;20414;-49
2022/12/14 05:29:46;;;;;;;44.60;23.88;;;;;;;;;;5084075;28;20111;-50
2022/12/14 05:32:12;;;;;;;47.20;27.02;;;-6.90;99.90;;;;;;5083193;28;20028;-51
2022/12/14 05:34:39;;;;;;;70.28;33.78;;;-6.80;99.90;;;;;;5092305;28;20498;-55
2022/12/14 05:37:05;;;;;;;62.22;30.20;;;;;;;;;;5091084;28;20047;-53
2022/12/14 05:39:31;;;;;;;59.25;28.92;;;;;;;;;;5091563;28;20120;-53
2022/12/14 05:41:57;;;;;;;61.05;28.90;;;;;;;;;;5086183;28;20028;-51
2022/12/14 05:44:23;;;;;;;60.15;30.33;;;;;;;;;;5089014;28;20034;-55
2022/12/14 05:46:48;;;;;;;69.90;33.15;;;-6.90;99.90;;;;;;5073006;28;20083;-53
2022/12/14 05:49:15;;;;;;;54.67;28.80;;;;;;;;;;5090065;28;20076;-54
2022/12/14 05:51:41;;;;;;;54.15;29.10;;;;;;;;;;5093076;28;20052;-51
2022/12/14 05:54:07;;;;;;;56.50;29.30;;;;;;;;;;5090654;28;20435;-52
2022/12/14 05:56:33;;;;;;;50.90;26.85;;;;;;;;;;5085438;28;20112;-51
2022/12/14 05:58:59;;;;;;;53.92;26.60;;;;;;;;;;5082056;28;20032;-52
2022/12/14 06:01:25;;;;;;;46.03;24.20;;;;;;;;;;5072042;28;20127;-51
2022/12/14 06:03:52;;;;;;;43.72;22.27;;;;;;;;;;5072238;28;20044;-51
2022/12/14 06:06:18;;;;;;;46.88;25.05;;;;;;;;;;5070362;28;20056;-58
2022/12/14 06:08:45;;;;;;;44.63;25.10;;;-6.70;99.90;;;;;;5075518;28;20347;-47
2022/12/14 06:11:12;;;;;;;46.45;24.20;;;-6.90;99.90;;;;;;5074622;28;20040;-53
2022/12/14 06:13:39;;;;;;;45.40;23.08;;;;;;;;;;5059510;28;20105;-50
2022/12/14 06:16:11;;;;;;;42.65;22.23;;;-6.90;99.90;;;;;;5077784;28;20047;-54
2022/12/14 06:18:40;;;;;;;51.83;25.40;;;;;;;;;;5072891;28;20059;-54
2022/12/14 06:21:09;;;;;;;47.22;24.10;;;;;;;;;;5077854;28;20040;-49
2022/12/14 06:23:35;;;;;;;47.45;24.35;;;;;;;;;;5083105;28;20401;-54
2022/12/14 06:26:01;;;;;;;49.97;25.00;;;;;;;;;;5080903;28;20044;-51
2022/12/14 06:28:27;;;;;;;42.28;22.60;;;;;;;;;;5071696;28;20032;-52
2022/12/14 06:30:53;;;;;;;39.47;22.00;;;;;;;;;;5077677;28;20055;-54
2022/12/14 06:33:19;;;;;;;47.17;23.92;;;;;;;;;;5078192;28;20086;-52
2022/12/14 06:35:45;;;;;;;40.65;21.48;;;;;;;;;;5056776;28;20090;-51
2022/12/14 06:38:12;;;;;;;44.65;24.35;;;;;;;;;;5081593;28;20036;-52
2022/12/14 06:40:39;;;;;;;40.53;22.50;;;;;;;;;;5081061;28;20413;-47
2022/12/14 06:43:05;;;;;;;37.30;21.58;;;;;;;;;;5080373;28;20112;-50
2022/12/14 06:45:31;;;;;;;44.72;23.10;;;;;;;;;;5076126;28;20358;-50
2022/12/14 06:47:57;;;;;;;43.33;21.10;;;;;;;;;;5081066;28;20490;-51
2022/12/14 06:50:24;;;;;;;42.97;21.63;;;;;;;;;;5087132;28;20035;-50
2022/12/14 06:52:50;;;;;;;45.28;21.92;;;-7.10;99.90;;;;;;5090276;28;20039;-52
2022/12/14 06:55:17;;;;;;;43.92;24.35;;;;;;;;;;5090241;28;20043;-50
2022/12/14 06:57:43;;;;;;;47.47;23.20;;;;;;;;;;5089398;28;20044;-52
2022/12/14 07:00:11;;;;;;;43.58;21.67;;;;;;;;;;5090547;28;20115;-51
2022/12/14 07:02:37;;;;;;;43.88;22.58;;;;;;;;;;5089947;28;20036;-50
2022/12/14 07:05:03;;;;;;;43.92;22.27;;;-7.10;99.90;;;;;;5090215;28;20123;-53
2022/12/14 07:07:32;;;;;;;39.85;20.58;;;-7.00;99.90;;;;;;5089405;28;20032;-56
2022/12/14 07:09:58;;;;;;;43.30;22.90;;;;;;;;;;5089986;28;20059;-52
2022/12/14 07:12:26;;;;;;;44.08;21.70;;;;;;;;;;5089592;28;20115;-52
2022/12/14 07:14:52;;;;;;;42.95;22.63;;;-7.10;99.90;;;;;;5072024;28;20036;-52
2022/12/14 07:17:19;;;;;;;45.10;23.88;;;;;;;;;;5089525;28;20088;-54
2022/12/14 07:19:45;;;;;;;40.50;21.70;;;;;;;;;;5093379;28;20029;-52
2022/12/14 07:22:11;;;;;;;38.90;21.25;;;;;;;;;;5090258;28;20036;-54
2022/12/14 07:24:37;;;;;;;45.95;23.50;;;;;;;;;;5089486;28;20043;-51
2022/12/14 07:27:03;;;;;;;43.47;23.38;;;;;;;;;;5089250;28;20497;-51
2022/12/14 07:29:30;;;;;;;42.47;21.40;;;;;;;;;;5089885;28;20539;-54
2022/12/14 07:31:56;;;;;;;41.42;23.10;;;;;;;;;;5093348;28;20036;-55
2022/12/14 07:34:22;;;;;;;43.70;21.00;;;;;;;;;;5095510;28;20459;-52
2022/12/14 07:36:49;;;;;;;39.15;20.75;;;;;;;;;;5086923;28;20044;-50
2022/12/14 07:39:15;;;;;;;42.17;22.92;;;;;;;;;;5087340;28;20089;-52
2022/12/14 07:41:42;;;;;;;41.88;22.17;;;-7.10;99.90;;;;;;5087766;28;20410;-53
2022/12/14 07:44:09;;;;;;;45.15;23.35;;;;;;;;;;5070558;28;20425;-55
2022/12/14 07:46:35;;;;;;;46.85;21.42;;;;;;;;;;5084679;28;20044;-55
2022/12/14 07:49:01;;;;;;;45.92;22.85;;;;;;;;;;5088082;28;20115;-55
2022/12/14 07:51:32;;;;;;;44.53;22.67;;;;;;;;;;5072028;28;20044;-55
2022/12/14 07:54:00;;;;;;;42.13;22.10;;;;;;;;;;5089423;28;20109;-51
2022/12/14 07:56:27;;;;;;;38.95;20.00;;;;;;;;;;5089997;28;20403;-51
2022/12/14 07:58:54;;;;;;;37.35;19.88;;;;;;;;;;5089154;28;20090;-51
2022/12/14 08:01:22;;;;;;;41.33;21.67;;;;;;;;;;5089516;28;20472;-54
2022/12/14 08:03:52;;;;;;;42.25;22.73;;;-7.20;99.90;;;;;;5089316;28;20050;-51
2022/12/14 08:06:19;;;;;;;38.28;21.73;;;;;;;;;;5089300;28;20108;-55
2022/12/14 08:08:45;;;;;;;42.67;23.42;;;;;;;;;;5088814;28;20032;-52
2022/12/14 08:11:12;;;;;;;43.75;24.55;;;;;;;;;;5071246;28;20169;-52
2022/12/14 08:13:38;;;;;;;43.17;22.42;;;;;;;;;;5089479;28;20043;-50
2022/12/14 08:16:05;;;;;;;49.95;24.27;;;;;;;;;;5089433;28;20039;-51
2022/12/14 08:18:32;;;;;;;44.88;25.80;;;;;;;;;;5088915;28;20040;-51
2022/12/14 08:20:58;;;;;;;49.97;26.23;;;;;;;;;;5089229;28;20040;-51
2022/12/14 08:23:24;;;;;;;46.13;23.60;;;;;;;;;;5097769;28;20043;-53
2022/12/14 08:25:54;;;;;;;46.17;25.13;;;-6.80;99.90;;;;;;5094563;28;20497;-50
2022/12/14 08:28:21;;;;;;;41.10;22.83;;;;;;;;;;5088856;28;20216;-54
2022/12/14 08:30:47;;;;;;;41.75;24.27;;;;;;;;;;5089296;28;20036;-50
2022/12/14 08:33:13;;;;;;;42.20;23.90;;;;;;;;;;5091074;28;20115;-51
2022/12/14 08:35:39;;;;;;;44.53;23.20;;;;;;;;;;5092586;28;20115;-53
2022/12/14 08:38:05;;;;;;;46.55;24.42;;;;;;;;;;5088700;28;20082;-54
2022/12/14 08:40:33;;;;;;;50.42;25.63;;;;;;;;;;5089859;28;20056;-52
2022/12/14 08:42:59;;;;;;;49.58;25.88;;;;;;;;;;5092903;28;20040;-51
2022/12/14 08:45:25;;;;;;;45.63;25.85;;;;;;;;;;5092705;28;20370;-51
2022/12/14 08:47:52;;;;;;;46.65;24.13;;;;;;;;;;5073937;28;20036;-51
2022/12/14 08:50:18;;;;;;;48.55;26.60;;;;;;;;;;5091168;28;20127;-55
2022/12/14 08:52:47;;;;;;;53.05;28.08;;;;;;;;;;5074411;28;20040;-52
2022/12/14 08:55:13;;;;;;;47.88;25.38;;;;;;;;;;5092511;28;20067;-52
2022/12/14 08:57:39;;;;;;;50.00;25.48;;;;;;;;;;5073613;28;20048;-53
2022/12/14 09:00:07;;;;;;;45.63;24.55;;;-5.70;99.90;;;;;;5074756;28;20039;-52
2022/12/14 09:02:33;;;;;;;54.95;28.83;;;;;;;;;;5104475;28;20130;-51
2022/12/14 09:04:59;;;;;;;51.13;26.63;;;;;;;;;;5074038;28;20072;-49
2022/12/14 09:07:26;;;;;;;52.70;27.65;;;;;;;;;;5091797;28;20032;-51
2022/12/14 09:09:52;;;;;;;54.10;28.23;;;-5.30;99.90;;;;;;5092149;28;20036;-50
2022/12/14 09:12:19;;;;;;;48.95;26.27;;;;;;;;;;5092153;28;20047;-51
2022/12/14 09:14:48;;;;;;;51.47;28.83;;;;;;;;;;5092025;28;20044;-50
2022/12/14 09:17:14;;;;;;;51.35;26.67;;;;;;;;;;5091440;28;20054;-52
2022/12/14 09:19:40;;;;;;;49.22;25.75;;;;;;;;;;5090403;28;20358;-54
2022/12/14 09:22:06;;;;;;;50.15;25.85;;;;;;;;;;5092388;28;20043;-51
2022/12/14 09:24:33;;;;;;;51.03;25.33;;;;;;;;;;5091785;28;20036;-50
2022/12/14 09:26:59;;;;;;;47.33;24.25;;;;;;;;;;5091291;28;20093;-51
2022/12/14 09:29:26;;;;;;;41.92;24.08;;;;;;;;;;5091756;28;20078;-51
2022/12/14 09:31:52;;;;;;;47.92;25.10;;;-4.80;99.90;;;;;;5095071;28;20027;-54
2022/12/14 09:34:18;;;;;;;45.58;24.98;;;;;;;;;;5097360;28;20113;-49
2022/12/14 09:36:44;;;;;;;44.00;23.52;;;;;;;;;;5091435;28;20040;-51
2022/12/14 09:39:13;;;;;;;48.65;27.00;;;;;;;;;;5091151;28;20046;-53
2022/12/14 09:41:58;;;;;;;39.92;23.33;;;;;;;;;;5091529;28;20036;-53
2022/12/14 09:44:33;;;;;;;47.28;22.48;;;;;;;;;;5090909;28;20093;-49
2022/12/14 09:47:18;;;;;;;45.60;23.02;;;;;;;;;;5065579;28;20040;-51
2022/12/14 09:49:58;;;;;;;38.58;21.92;;;;;;;;;;5090328;28;20462;-50
2022/12/14 09:52:39;;;;;;;44.72;22.50;;;;;;;;;;5094918;28;20043;-55
2022/12/14 09:55:09;;;;;;;39.17;20.30;;;;;;;;;;5096896;28;20142;-51
2022/12/14 09:57:40;;;;;;;40.13;21.80;;;-3.80;99.90;;;;;;5088405;28;20036;-54
2022/12/14 10:00:17;;;;;;;40.05;21.95;;;-4.20;99.90;;;;;;5091435;28;20028;-52
2022/12/14 10:02:49;;;;;;;45.40;23.08;;;-4.20;99.90;;;;;;5065754;28;20032;-51
2022/12/14 10:05:47;;;;;;;38.92;21.85;;;-3.50;99.90;;;;;;5090928;28;20460;-53
2022/12/14 10:08:24;;;;;;;40.70;21.88;;;;;;;;;;5080154;28;20443;-51
2022/12/14 10:10:58;;;;;;;39.72;22.02;;;-4.30;99.90;;;;;;5090794;28;20580;-51
2022/12/14 10:13:27;;;;;;;41.67;22.20;;;;;;;;;;5091053;28;20139;-51
2022/12/14 10:16:02;;;;;;;47.55;22.73;;;;;;;;;;5088009;28;20401;-51
2022/12/14 10:18:37;;;;;;;39.15;21.83;;;;;;;;;;5090474;28;20043;-51
2022/12/14 10:21:17;;;;;;;40.30;22.48;;;-3.50;99.90;;;;;;5090857;28;20040;-50
2022/12/14 10:24:03;;;;;;;33.85;19.40;;;;;;;;;;5090797;28;20036;-50
2022/12/14 10:26:37;;;;;;;34.63;19.10;;;;;;;;;;5069013;28;20127;-53
2022/12/14 10:29:27;;;;;;;34.58;18.40;;;;;;;;;;5072543;28;20607;-55
2022/12/14 10:32:04;;;;;;;36.42;19.60;;;;;;;;;;5074692;28;20462;-51
2022/12/14 10:34:31;;;;;;;38.92;21.55;;;-3.40;99.90;;;;;;5090379;28;20126;-51
2022/12/14 10:37:19;;;;;;;36.15;19.80;;;-3.10;99.90;;;;;;5089937;28;20071;-53
2022/12/14 10:40:09;;;;;;;34.83;18.20;;;-3.10;99.90;;;;;;5066696;28;20063;-51
2022/12/14 10:43:12;;;;;;;34.60;19.25;;;-3.40;99.90;;;;;;5078851;28;20044;-55
2022/12/14 10:45:47;;;;;;;32.03;18.10;;;;;;;;;;5088626;28;20135;-55
2022/12/14 10:48:24;;;;;;;29.10;17.25;;;;;;;;;;5089140;28;20036;-54
2022/12/14 10:51:17;;;;;;;30.27;16.65;;;-3.10;99.90;;;;;;5090437;28;20038;-55
2022/12/14 10:54:02;;;;;;;28.00;16.08;;;;;;;;;;5090295;28;20057;-55
2022/12/14 10:56:31;;;;;;;26.08;15.55;;;-3.10;99.90;;;;;;5071302;28;20051;-50
2022/12/14 10:59:16;;;;;;;26.85;15.98;;;;;;;;;;5087424;28;20101;-55
2022/12/14 11:01:42;;;;;;;;;;;;;;;;;;5097453;28;20044;-54
2022/12/14 11:04:28;;;;;;;26.63;15.32;;;;;;;;;;5090662;28;20357;-54
2022/12/14 11:06:55;;;;;;;28.70;15.20;;;;;;;;;;5082957;28;20402;-54
2022/12/14 11:09:21;;;;;;;30.30;15.48;;;;;;;;;;5090276;28;20075;-53
2022/12/14 11:11:47;;;;;;;29.00;15.68;;;-2.70;99.90;;;;;;5090053;28;20480;-52
2022/12/14 11:14:20;;;;;;;22.92;13.15;;;-2.10;99.90;;;;;;5090365;28;20035;-52
2022/12/14 11:16:46;;;;;;;26.25;16.23;;;;;;;;;;5090244;28;20051;-55
2022/12/14 11:19:19;;;;;;;27.25;15.23;;;;;;;;;;5089609;28;20038;-55
2022/12/14 11:21:46;;;;;;;24.23;14.30;;;;;;;;;;5072034;28;20497;-51
2022/12/14 11:24:24;;;;;;;27.02;14.93;;;;;;;;;;5090218;28;20401;-51
2022/12/14 11:26:51;;;;;;;27.65;15.38;;;;;;;;;;5091289;28;20064;-55
2022/12/14 11:29:20;;;;;;;25.92;13.82;;;;;;;;;;5095863;28;20028;-56
2022/12/14 11:31:47;;;;;;;22.95;13.68;;;;;;;;;;5092633;28;20047;-55
2022/12/14 11:34:26;;;;;;;24.50;13.38;;;-0.30;99.90;;;;;;5096261;28;20040;-55
2022/12/14 11:36:51;;;;;;;24.55;13.27;;;1.70;99.90;;;;;;5071337;28;20514;-53
2022/12/14 11:39:23;;;;;;;21.23;11.27;;;3.00;99.90;;;;;;5072085;28;20123;-55
2022/12/14 11:41:58;;;;;;;22.20;12.25;;;;;;;;;;5089456;28;20036;-55
2022/12/14 11:44:25;;;;;;;18.98;10.70;;;;;;;;;;5090001;28;20075;-55
2022/12/14 11:46:55;;;;;;;18.63;11.32;;;;;;;;;;5089248;28;20403;-53
2022/12/14 11:49:25;;;;;;;21.58;10.65;;;7.80;99.90;;;;;;5088399;28;20493;-55
2022/12/14 11:52:01;;;;;;;19.27;11.13;;;;;;;;;;5089888;28;20058;-56
2022/12/14 11:54:28;;;;;;;20.05;10.43;;;;;;;;;;5090032;28;20502;-55
2022/12/14 11:57:16;;;;;;;17.02;9.93;;;11.20;99.90;;;;;;5071660;28;20036;-54
2022/12/14 11:59:50;;;;;;;19.27;10.10;;;12.50;99.90;;;;;;5071756;28;20501;-56
2022/12/14 12:02:25;;;;;;;16.35;8.15;;;13.20;99.90;;;;;;5075615;28;20043;-57
2022/12/14 12:05:04;;;;;;;11.57;6.93;;;12.00;99.90;;;;;;5089646;28;20075;-56
2022/12/14 12:07:35;;;;;;;10.98;5.53;;;11.90;99.90;;;;;;5091661;28;20470;-56
2022/12/14 12:10:15;;;;;;;11.52;6.68;;;12.30;99.90;;;;;;5093491;28;20028;-56
2022/12/14 12:12:53;;;;;;;11.75;6.72;;;12.10;99.90;;;;;;5093338;28;20564;-52
2022/12/14 12:15:41;;;;;;;12.02;6.22;;;11.70;99.90;;;;;;5093740;28;20036;-55
2022/12/14 12:18:22;;;;;;;12.93;6.32;;;13.00;99.90;;;;;;5068636;28;20079;-56
2022/12/14 12:20:51;;;;;;;10.85;6.60;;;;;;;;;;5075211;28;20044;-54
2022/12/14 12:23:21;;;;;;;11.60;6.03;;;14.50;1.00;;;;;;5093503;28;20044;-53
2022/12/14 12:25:51;;;;;;;10.00;6.15;;;15.40;99.90;;;;;;5098145;28;20040;-57
2022/12/14 12:28:23;;;;;;;10.90;6.70;;;16.10;99.90;;;;;;5074572;28;20082;-56
2022/12/14 12:30:50;;;;;;;12.70;7.18;;;;;;;;;;5093266;28;20031;-54
2022/12/14 12:33:25;;;;;;;14.32;7.35;;;16.40;99.90;;;;;;5070304;28;20139;-56
2022/12/14 12:35:54;;;;;;;10.13;6.47;;;16.40;1.00;;;;;;5105113;28;20055;-57
2022/12/14 12:38:52;;;;;;;10.40;6.43;;;15.60;99.90;;;;;;5074739;28;20040;-57
2022/12/14 12:41:39;;;;;;;11.45;6.05;;;14.90;99.90;;;;;;5093097;28;20047;-57
2022/12/14 12:44:33;;;;;;;11.00;6.15;;;15.10;99.90;;;;;;5100942;28;20046;-56
2022/12/14 12:47:18;;;;;;;12.27;6.68;;;14.70;1.00;;;;;;5090434;28;20040;-56
2022/12/14 12:49:44;;;;;;;11.80;6.30;;;14.90;99.90;;;;;;5105747;28;20405;-56
2022/12/14 12:52:35;;;;;;;11.40;5.97;;;13.70;99.90;;;;;;5097702;28;20047;-56
2022/12/14 12:55:12;;;;;;;12.75;7.43;;;13.90;99.90;;;;;;5094610;28;20032;-56
2022/12/14 12:57:43;;;;;;;10.75;7.65;;;15.40;99.90;;;;;;5098941;28;20510;-56
2022/12/14 13:00:29;;;;;;;11.55;6.40;;;15.00;99.90;;;;;;5081098;28;20108;-56
2022/12/14 13:03:23;;;;;;;10.75;6.40;;;15.00;99.90;;;;;;5084714;28;20112;-56
2022/12/14 13:05:52;;;;;;;10.35;6.32;;;15.40;99.90;;;;;;5099915;28;20036;-56
2022/12/14 13:08:35;;;;;;;12.07;7.13;;;15.10;99.90;;;;;;5092007;28;20040;-56
2022/12/14 13:11:15;;;;;;;11.52;6.82;;;15.80;99.90;;;;;;5092461;28;20032;-56
2022/12/14 13:13:47;;;;;;;10.82;7.03;;;15.00;99.90;;;;;;5092486;28;20089;-56
2022/12/14 13:16:40;;;;;;;11.45;6.95;;;14.80;99.90;;;;;;5092253;28;20437;-56
2022/12/14 13:19:22;;;;;;;11.73;8.20;;;14.60;99.90;;;;;;5081996;28;20074;-53
2022/12/14 13:21:51;;;;;;;14.43;7.88;;;14.70;99.90;;;;;;5092509;28;20048;-56
2022/12/14 13:24:19;;;;;;;12.18;7.95;;;13.90;99.90;;;;;;5096956;28;20439;-52
2022/12/14 13:26:51;;;;;;;11.95;7.22;;;14.20;99.90;;;;;;5084802;28;20043;-53
2022/12/14 13:29:19;;;;;;;13.13;8.05;;;14.70;99.90;;;;;;5091718;28;20040;-53
2022/12/14 13:32:11;;;;;;;12.75;7.80;;;14.20;99.90;;;;;;5100576;28;20028;-55
2022/12/14 13:35:01;;;;;;;14.60;8.30;;;14.20;99.90;;;;;;5093053;28;20066;-56
2022/12/14 13:38:04;;;;;;;11.50;7.13;;;14.90;99.90;;;;;;5103446;28;20485;-56
2022/12/14 13:40:35;;;;;;;10.88;6.57;;;14.80;99.90;;;;;;5097317;28;20405;-52
2022/12/14 13:43:23;;;;;;;9.85;6.13;;;14.40;99.90;;;;;;5095799;28;20051;-56
2022/12/14 13:45:49;;;;;;;10.07;7.53;;;14.20;99.90;;;;;;5091729;28;20040;-57
2022/12/14 13:48:23;;;;;;;10.98;7.20;;;13.00;99.90;;;;;;5091041;28;20044;-56
2022/12/14 13:51:02;;;;;;;12.20;6.57;;;11.10;99.90;;;;;;5073236;28;20044;-55
2022/12/14 13:53:40;;;;;;;14.18;7.53;;;11.30;99.90;;;;;;5091458;28;20512;-53
2022/12/14 13:56:07;;;;;;;13.55;7.35;;;9.00;99.90;;;;;;5092184;28;20172;-56
2022/12/14 13:58:42;;;;;;;11.93;7.82;;;7.60;99.90;;;;;;5100193;28;20460;-56
2022/12/14 14:01:15;;;;;;;;;;;7.30;99.90;;;;;;5097870;28;20046;-51
2022/12/14 14:03:46;;;;;;;11.50;7.82;;;7.00;99.90;;;;;;5096948;28;20439;-56
2022/12/14 14:06:11;;;;;;;13.52;8.27;;;6.50;99.90;;;;;;5091893;28;20051;-56
2022/12/14 14:08:49;;;;;;;11.70;7.32;;;6.60;99.90;;;;;;5072539;28;20039;-56
2022/12/14 14:11:18;;;;;;;12.90;7.82;;;;;;;;;;5086048;28;20552;-55
2022/12/14 14:13:43;;;;;;;11.95;7.28;;;6.70;99.90;;;;;;5073182;28;20039;-56
2022/12/14 14:16:41;;;;;;;13.07;7.10;;;6.10;99.90;;;;;;5090981;28;20032;-56